Time;durP1;ratioP1;P1;durP2;ratioP2;P2;SDS_P1;SDS_P2;PMS_P1;PMS_P2;Temp;Humidity;BMP_temperature;BMP_pressure;BME280_temperature;BME280_humidity;BME280_pressure;Samples;Min_cycle;Max_cycle;Signal;HPM_P1;HPM_P2
2021/04/11 00:01:22;;;;;;;23.40;8.77;;;;;;;16.78;75.12;99934.03;4988332;28;20470;-67
2021/04/11 00:03:48;;;;;;;21.15;8.98;;;;;;;16.56;74.77;99898.44;4991973;28;20054;-70
2021/04/11 00:06:15;;;;;;;14.85;7.53;;;;;;;16.87;74.78;99950.09;4989909;28;20057;-70
2021/04/11 00:08:43;;;;;;;25.37;8.47;;;;;;;16.78;75.03;99942.50;4992630;28;20058;-70
2021/04/11 00:11:10;;;;;;;24.83;8.05;;;;;;;16.77;75.14;99929.56;4988522;28;20046;-68
2021/04/11 00:13:39;;;;;;;15.90;8.15;;;;;;;16.80;74.94;99945.00;4989108;28;20042;-69
2021/04/11 00:16:06;;;;;;;22.33;8.60;;;;;;;16.81;75.33;99944.63;4988344;28;20053;-71
2021/04/11 00:18:33;;;;;;;18.65;8.40;;;;;;;16.82;74.99;99945.50;4980974;28;20046;-69
2021/04/11 00:21:03;;;;;;;25.85;9.15;;;;;;;16.75;75.35;99937.56;4983071;28;20046;-68
2021/04/11 00:23:33;;;;;;;28.77;9.00;;;;;;;16.83;75.40;99947.13;4989975;28;20046;-68
2021/04/11 00:25:59;;;;;;;20.60;8.97;;;;;;;16.83;75.32;99949.97;4990935;28;20051;-71
2021/04/11 00:28:28;;;;;;;15.80;7.85;;;;;;;16.79;75.27;99944.16;4980612;28;20053;-71
2021/04/11 00:30:54;;;;;;;24.33;8.45;;;;;;;16.54;75.42;99909.22;4987847;28;20056;-69
2021/04/11 00:33:30;;;;;;;21.77;9.63;;;;;;;16.67;75.67;99932.72;4991041;28;20223;-71
2021/04/11 00:36:08;;;;;;;23.40;9.63;;;;;;;16.77;75.65;99945.66;4991869;28;20042;-69
2021/04/11 00:38:35;;;;;;;25.63;9.07;;;;;;;16.69;75.73;99930.41;4986262;28;20201;-69
2021/04/11 00:41:26;;;;;;;25.67;9.30;;;;;;;16.77;76.33;99940.84;4991020;28;20042;-69
2021/04/11 00:43:53;;;;;;;18.63;8.80;;;;;;;16.83;75.68;99946.31;4988307;28;20042;-69
2021/04/11 00:46:28;;;;;;;19.93;8.13;;;;;;;16.81;75.70;99946.63;4990533;28;20049;-69
2021/04/11 00:48:55;;;;;;;24.03;8.00;;;;;;;16.80;75.54;99942.16;4989543;28;20049;-69
2021/04/11 00:51:25;;;;;;;18.83;8.37;;;;;;;16.79;75.58;99944.16;4983594;28;20039;-69
2021/04/11 00:53:56;;;;;;;17.20;8.40;;;;;;;16.82;75.44;99948.31;4972820;28;20038;-71
2021/04/11 00:56:23;;;;;;;19.83;8.30;;;;;;;16.76;75.31;99944.84;4982984;28;20422;-74
2021/04/11 00:58:49;;;;;;;21.23;8.70;;;;;;;16.50;75.18;99898.94;4990519;28;20391;-75
2021/04/11 01:01:16;;;;;;;18.30;8.43;;;;;;;16.77;75.37;99946.47;4988231;28;20126;-76
2021/04/11 01:03:43;;;;;;;16.87;8.63;;;;;;;16.79;75.26;99954.63;4991621;28;20495;-77
2021/04/11 01:06:15;;;;;;;26.48;8.73;;;;;;;16.76;75.50;99946.84;4985538;28;20149;-71
2021/04/11 01:08:42;;;;;;;21.23;9.23;;;;;;;16.75;75.13;99948.84;4984025;28;20046;-69
2021/04/11 01:11:17;;;;;;;23.05;8.23;;;;;;;16.71;75.41;99936.50;4992232;28;20064;-70
2021/04/11 01:13:48;;;;;;;20.27;8.87;;;;;;;16.70;75.31;99934.03;4990721;28;20264;-68
2021/04/11 01:16:17;;;;;;;18.25;8.52;;;;;;;16.74;75.42;99947.16;4984704;28;20078;-69
2021/04/11 01:18:45;;;;;;;24.55;9.98;;;;;;;16.75;75.63;99942.34;4987846;28;20504;-68
2021/04/11 01:21:17;;;;;;;20.52;8.85;;;;;;;16.75;75.81;99946.00;4989528;28;20061;-69
2021/04/11 01:23:51;;;;;;;28.17;12.50;;;;;;;16.71;75.80;99941.34;4979962;28;20046;-68
2021/04/11 01:26:19;;;;;;;29.50;10.97;;;;;;;16.68;75.91;99945.66;4987695;28;20483;-67
2021/04/11 01:28:47;;;;;;;28.13;12.73;;;;;;;16.64;75.58;99941.84;4989218;28;20046;-69
2021/04/11 01:31:15;;;;;;;28.35;11.07;;;;;;;16.66;75.91;99939.53;4989694;28;20418;-69
2021/04/11 01:33:45;;;;;;;29.40;12.00;;;;;;;16.64;75.89;99946.66;4988320;28;20484;-69
2021/04/11 01:36:14;;;;;;;27.60;12.70;;;;;;;16.54;75.79;99926.13;4988472;28;20042;-72
2021/04/11 01:38:44;;;;;;;28.20;11.67;;;;;;;16.72;75.69;99943.84;4985559;28;20069;-73
2021/04/11 01:41:19;;;;;;;29.37;11.10;;;;;;;16.74;76.12;99952.78;4986268;28;20776;-73
2021/04/11 01:43:48;;;;;;;26.58;10.93;;;;;;;16.66;75.90;99928.25;4984618;28;20058;-76
2021/04/11 01:46:15;;;;;;;29.80;12.20;;;;;;;16.73;75.79;99939.84;4983239;28;20126;-74
2021/04/11 01:48:43;;;;;;;29.10;11.77;;;;;;;16.70;75.83;99937.69;4989254;28;20038;-76
2021/04/11 01:51:12;;;;;;;22.70;11.83;;;;;;;16.82;75.82;99942.69;4982039;28;20053;-72
2021/04/11 01:53:40;;;;;;;24.45;10.68;;;;;;;16.85;75.43;99946.78;4989101;28;20046;-74
2021/04/11 01:56:07;;;;;;;32.33;13.27;;;;;;;16.82;75.61;99937.03;4987505;28;20533;-69
2021/04/11 01:58:37;;;;;;;25.17;11.35;;;;;;;16.79;75.81;99930.06;4982189;28;20108;-69
2021/04/11 02:01:20;;;;;;;26.30;10.90;;;;;;;16.88;75.93;99946.13;4983041;28;20078;-67
2021/04/11 02:03:52;;;;;;;33.92;12.00;;;;;;;16.75;75.58;99926.28;4985443;28;20551;-67
2021/04/11 02:06:22;;;;;;;19.92;10.77;;;;;;;16.81;75.42;99936.19;4986431;28;20533;-71
2021/04/11 02:08:54;;;;;;;25.83;10.73;;;;;;;16.74;75.57;99927.41;4986622;28;20398;-73
2021/04/11 02:11:22;;;;;;;24.40;10.02;;;;;;;16.85;75.55;99943.97;4982941;28;20456;-65
2021/04/11 02:13:48;;;;;;;27.13;12.30;;;;;;;16.83;75.48;99935.84;4989063;28;20475;-66
2021/04/11 02:16:21;;;;;;;21.90;11.38;;;;;;;16.87;75.11;99955.75;4985382;28;20054;-69
2021/04/11 02:18:48;;;;;;;29.00;13.00;;;;;;;16.75;75.42;99943.19;4987838;28;20117;-65
2021/04/11 02:21:20;;;;;;;33.13;12.52;;;;;;;16.75;75.07;99937.56;4984753;28;20046;-77
2021/04/11 02:23:47;;;;;;;29.33;12.10;;;;;;;16.86;74.77;99951.28;4989489;28;20176;-72
2021/04/11 02:26:14;;;;;;;26.30;11.95;;;;;;;16.84;74.96;99945.97;4988154;28;20052;-70
2021/04/11 02:28:40;;;;;;;26.33;11.82;;;;;;;16.78;74.78;99939.66;4987520;28;20046;-70
2021/04/11 02:31:19;;;;;;;28.65;11.68;;;;;;;16.78;74.67;99947.31;4985777;28;20460;-68
2021/04/11 02:33:56;;;;;;;28.38;11.30;;;;;;;16.68;74.90;99931.53;4984139;28;20039;-69
2021/04/11 02:36:25;;;;;;;31.70;11.60;;;;;;;16.74;74.73;99951.94;4984791;28;20042;-71
2021/04/11 02:38:55;;;;;;;23.25;11.20;;;;;;;16.72;74.24;99955.09;4986987;28;20046;-70
2021/04/11 02:41:23;;;;;;;21.98;9.93;;;;;;;16.68;74.31;99944.81;4986400;28;20133;-71
2021/04/11 02:43:49;;;;;;;22.70;10.20;;;;;;;16.67;73.93;99951.63;4988078;28;20513;-72
2021/04/11 02:46:17;;;;;;;22.83;9.73;;;;;;;16.64;73.92;99957.94;4983049;28;20073;-66
2021/04/11 02:48:43;;;;;;;26.47;11.07;;;;;;;16.61;73.64;99953.78;4986780;28;20346;-67
2021/04/11 02:51:11;;;;;;;22.00;11.40;;;;;;;16.54;73.71;99947.84;4987624;28;20050;-68
2021/04/11 02:53:39;;;;;;;30.83;11.77;;;;;;;16.43;73.58;99946.56;4985766;28;20406;-66
2021/04/11 02:56:06;;;;;;;35.47;10.97;;;;;;;16.49;73.83;99960.13;4986888;28;20046;-68
2021/04/11 02:58:33;;;;;;;28.05;12.63;;;;;;;16.49;73.52;99962.13;4989492;28;20092;-67
2021/04/11 03:01:06;;;;;;;28.55;10.85;;;;;;;16.45;73.75;99956.34;4992319;28;20046;-67
2021/04/11 03:03:33;;;;;;;22.77;11.88;;;;;;;16.48;73.56;99952.84;4992122;28;20042;-67
2021/04/11 03:06:05;;;;;;;25.50;11.87;;;;;;;16.42;73.73;99951.38;4990413;28;20057;-67
2021/04/11 03:08:34;;;;;;;28.43;12.40;;;;;;;16.18;73.60;99906.81;4991661;28;20061;-66
2021/04/11 03:11:25;;;;;;;28.42;11.32;;;;;;;16.54;73.76;99959.13;4992954;28;20406;-68
2021/04/11 03:13:53;;;;;;;26.58;11.25;;;;;;;16.53;73.71;99961.13;4990299;28;20069;-68
2021/04/11 03:16:21;;;;;;;21.27;10.68;;;;;;;16.42;73.57;99944.91;4993510;28;20046;-68
2021/04/11 03:18:50;;;;;;;27.07;12.33;;;;;;;16.54;73.67;99964.75;4988910;28;20054;-66
2021/04/11 03:21:19;;;;;;;28.20;11.52;;;;;;;16.55;73.50;99972.91;4986137;28;20093;-67
2021/04/11 03:23:46;;;;;;;24.93;12.40;;;;;;;16.51;73.48;99971.91;4991930;28;20422;-68
2021/04/11 03:26:37;;;;;;;27.23;12.17;;;;;;;16.48;73.80;99978.22;4992513;28;20039;-68
2021/04/11 03:29:11;;;;;;;31.83;11.67;;;;;;;16.47;73.55;99975.72;4987581;28;20480;-68
2021/04/11 03:31:47;;;;;;;27.60;12.03;;;;;;;16.33;73.52;99950.53;4992518;28;20407;-68
2021/04/11 03:34:17;;;;;;;22.77;11.50;;;;;;;16.47;73.68;99968.09;4991104;28;20050;-68
2021/04/11 03:36:46;;;;;;;32.10;10.45;;;;;;;16.34;73.56;99947.41;4989020;28;20043;-68
2021/04/11 03:39:14;;;;;;;29.25;12.35;;;;;;;16.18;73.43;99914.44;4988058;28;20057;-70
2021/04/11 03:41:42;;;;;;;29.15;13.27;;;;;;;16.47;73.15;99962.44;4993274;28;20059;-70
2021/04/11 03:44:14;;;;;;;23.17;10.23;;;;;;;16.52;73.15;99962.28;4990147;28;20061;-70
2021/04/11 03:47:10;;;;;;;30.40;10.83;;;;;;;16.47;73.36;99958.81;4988662;28;20113;-69
2021/04/11 03:50:12;;;;;;;20.85;9.95;;;;;;;16.48;73.25;99972.59;4981651;28;20047;-69
2021/04/11 03:52:54;;;;;;;21.95;10.18;;;;;;;16.45;73.01;99966.78;4977992;28;20129;-71
2021/04/11 03:55:23;;;;;;;22.08;11.63;;;;;;;16.42;73.30;99970.28;4990875;28;20046;-70
2021/04/11 03:57:57;;;;;;;22.52;10.18;;;;;;;16.27;73.01;99969.63;4991160;28;20052;-70
2021/04/11 04:00:29;;;;;;;23.10;10.93;;;;;;;16.26;73.04;99975.59;4986280;28;20515;-70
2021/04/11 04:03:05;;;;;;;24.00;11.50;;;;;;;16.23;73.03;99977.06;4984879;28;20046;-70
2021/04/11 04:05:34;;;;;;;18.67;9.37;;;;;;;16.19;73.06;99980.88;4992754;28;20046;-69
2021/04/11 04:08:00;;;;;;;22.00;10.57;;;;;;;16.22;72.55;99997.97;4990332;28;20046;-70
2021/04/11 04:10:37;;;;;;;25.95;9.38;;;;;;;16.15;72.36;99980.72;4993041;28;20090;-71
2021/04/11 04:13:45;;;;;;;17.47;8.90;;;;;;;16.15;72.51;99991.19;4986561;28;20059;-68
2021/04/11 04:16:15;;;;;;;18.07;9.80;;;;;;;16.10;71.97;100001.44;4985591;28;20053;-69
2021/04/11 04:19:16;;;;;;;17.73;9.40;;;;;;;16.00;72.33;99986.84;4985452;28;20182;-68
2021/04/11 04:21:53;;;;;;;17.10;9.60;;;;;;;15.97;71.83;99993.16;4991345;28;20050;-69
2021/04/11 04:24:47;;;;;;;17.23;7.77;;;;;;;15.87;72.15;99997.94;4989201;28;20140;-68
2021/04/11 04:27:59;;;;;;;20.80;8.70;;;;;;;15.78;71.97;99994.28;4991959;28;20053;-66
2021/04/11 04:30:32;;;;;;;16.77;8.63;;;;;;;15.72;72.07;99998.41;4969871;28;20054;-66
2021/04/11 04:33:26;;;;;;;18.80;8.90;;;;;;;15.68;72.34;99994.59;4989312;28;20043;-67
2021/04/11 04:36:08;;;;;;;20.23;8.67;;;;;;;15.67;71.43;99997.75;4984021;28;20049;-67
2021/04/11 04:38:57;;;;;;;23.80;9.10;;;;;;;15.63;71.47;100006.00;4986120;28;20057;-67
2021/04/11 04:41:35;;;;;;;21.17;10.60;;;;;;;15.52;71.33;99990.56;4982735;28;20609;-67
2021/04/11 04:44:30;;;;;;;16.80;8.77;;;;;;;15.52;71.70;100001.81;4984761;28;20130;-67
2021/04/11 04:47:06;;;;;;;23.60;9.57;;;;;;;15.41;71.35;99993.69;4983839;28;20049;-67
2021/04/11 04:49:54;;;;;;;14.40;8.27;;;;;;;15.38;71.60;100002.78;4984321;28;20491;-67
2021/04/11 04:52:30;;;;;;;19.63;9.60;;;;;;;15.32;71.56;100004.09;4990241;28;20050;-67
2021/04/11 04:55:14;;;;;;;21.67;10.50;;;;;;;15.22;71.59;99986.69;4984901;28;20046;-66
2021/04/11 04:57:52;;;;;;;19.10;8.50;;;;;;;15.29;71.52;100006.72;4987755;28;20062;-66
2021/04/11 05:00:22;;;;;;;21.30;9.37;;;;;;;15.25;71.32;100003.75;4991691;28;20505;-67
2021/04/11 05:03:04;;;;;;;16.07;8.67;;;;;;;15.23;71.36;100006.03;4989545;28;20490;-67
2021/04/11 05:05:32;;;;;;;22.83;8.47;;;;;;;15.18;71.22;100014.63;4988063;28;20046;-65
2021/04/11 05:08:22;;;;;;;17.83;9.80;;;;;;;15.11;71.63;100003.00;4984067;28;20064;-66
2021/04/11 05:10:52;;;;;;;23.75;9.82;;;;;;;15.14;71.28;100020.09;4988143;28;20396;-65
2021/04/11 05:13:23;;;;;;;21.03;9.70;;;;;;;15.10;71.31;100015.41;4989016;28;20056;-67
2021/04/11 05:15:56;;;;;;;19.67;9.80;;;;;;;14.98;71.14;100012.38;4985102;28;20050;-72
2021/04/11 05:18:30;;;;;;;16.00;8.63;;;;;;;15.03;71.30;100024.31;4991150;28;20409;-68
2021/04/11 05:21:06;;;;;;;23.37;8.80;;;;;;;14.94;71.31;100009.41;4988187;28;20050;-68
2021/04/11 05:23:40;;;;;;;20.67;9.33;;;;;;;15.00;71.25;100032.56;4988905;28;20052;-71
2021/04/11 05:26:16;;;;;;;17.50;9.03;;;;;;;15.02;71.14;100038.69;4986729;28;20410;-68
2021/04/11 05:28:53;;;;;;;15.97;8.23;;;;;;;14.99;71.39;100033.72;4987718;28;20046;-66
2021/04/11 05:31:25;;;;;;;17.90;8.70;;;;;;;14.89;71.04;100018.78;4984587;28;20046;-67
2021/04/11 05:33:54;;;;;;;20.20;8.60;;;;;;;14.85;71.08;100029.00;4988072;28;20129;-65
2021/04/11 05:36:30;;;;;;;21.80;9.93;;;;;;;14.93;71.07;100045.09;4984278;28;20046;-66
2021/04/11 05:39:28;;;;;;;18.23;9.73;;;;;;;14.92;70.92;100043.44;4986246;28;20056;-66
2021/04/11 05:41:58;;;;;;;16.93;7.77;;;;;;;14.87;70.73;100035.16;4989489;28;20479;-65
2021/04/11 05:44:32;;;;;;;17.23;8.73;;;;;;;14.86;70.85;100033.47;4987416;28;20049;-65
2021/04/11 05:47:12;;;;;;;14.07;7.87;;;;;;;14.68;71.06;100024.13;4987690;28;20475;-66
2021/04/11 05:50:01;;;;;;;14.05;7.68;;;;;;;14.80;71.13;100043.22;4986300;28;20039;-64
2021/04/11 05:52:52;;;;;;;18.93;7.83;;;;;;;14.75;71.10;100040.53;4990298;28;20057;-68
2021/04/11 05:55:22;;;;;;;20.73;9.07;;;;;;;14.81;71.02;100056.13;4988404;28;20042;-66
2021/04/11 05:57:54;;;;;;;;;;;;;;;14.78;71.42;100050.31;4990466;28;20054;-73
2021/04/11 06:01:14;;;;;;;14.30;7.17;;;;;;;14.78;71.37;100058.75;4987998;28;19930;-71
2021/04/11 06:04:04;;;;;;;15.02;7.78;;;;;;;14.71;71.38;100050.75;4947622;28;20057;-68
2021/04/11 06:07:12;;;;;;;14.95;7.10;;;;;;;14.68;71.40;100068.25;4988747;28;20046;-68
2021/04/11 06:09:45;;;;;;;20.97;7.80;;;;;;;14.72;71.38;100077.72;4989078;28;20068;-69
2021/04/11 06:12:27;;;;;;;14.37;7.27;;;;;;;14.73;71.31;100082.16;4985458;28;20043;-68
2021/04/11 06:15:00;;;;;;;17.93;7.17;;;;;;;14.67;71.20;100073.06;4984453;28;20050;-69
2021/04/11 06:17:27;;;;;;;17.13;7.83;;;;;;;14.58;71.19;100063.72;4988263;28;20043;-67
2021/04/11 06:19:53;;;;;;;14.60;7.27;;;;;;;14.65;71.30;100077.31;4989855;28;20069;-68
2021/04/11 06:22:40;;;;;;;21.87;7.47;;;;;;;14.59;71.29;100075.78;4986072;28;20062;-68
2021/04/11 06:25:16;;;;;;;13.70;7.57;;;;;;;14.66;71.46;100104.28;4986363;28;20055;-68
2021/04/11 06:28:14;;;;;;;12.50;6.77;;;;;;;14.62;71.45;100094.81;4984750;28;20070;-72
2021/04/11 06:31:04;;;;;;;16.70;7.53;;;;;;;14.68;71.47;100104.78;4984357;28;20046;-73
2021/04/11 06:33:39;;;;;;;;;;;;;;;14.67;71.95;100114.38;4987627;28;20410;-67
2021/04/11 06:36:09;;;;;;;13.47;6.83;;;;;;;14.73;71.38;100118.69;4986805;28;19926;-65
2021/04/11 06:38:49;;;;;;;16.37;6.87;;;;;;;14.73;71.60;100115.91;4984974;28;20133;-67
2021/04/11 06:41:52;;;;;;;13.27;7.45;;;;;;;14.78;71.69;100124.22;4985872;28;20513;-74
2021/04/11 06:44:24;;;;;;;14.43;7.37;;;;;;;14.87;71.40;100139.19;4982969;28;20046;-68
2021/04/11 06:47:19;;;;;;;13.23;8.77;;;;;;;14.97;71.86;100120.38;4980772;28;20403;-65
2021/04/11 06:49:47;;;;;;;13.87;7.33;;;;;;;15.10;71.74;100136.34;4982369;28;20125;-74
2021/04/11 06:52:44;;;;;;;11.40;7.17;;;;;;;15.19;71.85;100140.03;4984349;28;21841;-63
2021/04/11 06:55:13;;;;;;;11.73;6.90;;;;;;;15.36;71.56;100136.50;4984927;28;20052;-63
2021/04/11 06:57:42;;;;;;;12.35;6.88;;;;;;;15.53;71.22;100147.84;4984457;28;20758;-62
2021/04/11 07:00:22;;;;;;;12.27;6.43;;;;;;;15.69;71.32;100151.09;4986995;28;20421;-65
2021/04/11 07:03:24;;;;;;;10.00;6.20;;;;;;;15.85;71.37;100146.66;4984521;28;20137;-70
2021/04/11 07:05:57;;;;;;;9.10;5.77;;;;;;;15.97;71.49;100150.88;4985455;28;20046;-68
2021/04/11 07:08:57;;;;;;;10.30;5.80;;;;;;;16.19;71.40;100156.38;4983247;28;20043;-68
2021/04/11 07:11:55;;;;;;;11.00;5.77;;;;;;;16.48;71.02;100154.97;4983685;28;20060;-68
2021/04/11 07:14:27;;;;;;;8.77;4.32;;;;;;;16.79;70.57;100166.94;4986140;28;20058;-67
2021/04/11 07:17:01;;;;;;;6.10;4.30;;;;;;;17.06;70.08;100173.41;4983141;28;20053;-68
2021/04/11 07:19:42;;;;;;;9.02;4.15;;;;;;;17.36;69.83;100171.50;4984595;28;20120;-67
2021/04/11 07:22:39;;;;;;;9.02;4.55;;;;;;;17.67;69.41;100174.06;4987427;28;20050;-68
2021/04/11 07:25:30;;;;;;;9.63;4.05;;;;;;;17.95;69.30;100173.69;4981072;28;20065;-68
2021/04/11 07:28:18;;;;;;;6.53;3.67;;;;;;;18.23;68.99;100171.19;4985125;28;20533;-67
2021/04/11 07:30:50;;;;;;;5.68;3.45;;;;;;;18.45;68.62;100179.34;4987195;28;20388;-67
2021/04/11 07:33:31;;;;;;;7.88;3.63;;;;;;;18.72;68.07;100191.34;4983518;28;20049;-69
2021/04/11 07:36:12;;;;;;;6.45;3.22;;;;;;;18.99;67.25;100180.66;4980792;28;20051;-68
2021/04/11 07:39:07;;;;;;;8.32;3.92;;;;;;;19.27;66.71;100189.38;4985187;28;20056;-68
2021/04/11 07:41:50;;;;;;;5.38;3.05;;;;;;;19.54;65.59;100185.94;4987441;28;20057;-69
2021/04/11 07:44:36;;;;;;;6.35;3.55;;;;;;;19.79;64.54;100197.34;4990664;28;20042;-68
2021/04/11 07:47:17;;;;;;;8.80;4.15;;;;;;;19.99;63.92;100193.59;4981642;28;20050;-68
2021/04/11 07:50:18;;;;;;;6.07;3.83;;;;;;;20.08;63.40;100194.31;4989369;28;20057;-68
2021/04/11 07:53:03;;;;;;;4.45;3.88;;;;;;;20.24;62.58;100196.44;4989186;28;20050;-67
2021/04/11 07:55:49;;;;;;;5.95;4.45;;;;;;;20.42;61.63;100203.53;4985180;28;20046;-68
2021/04/11 07:58:42;;;;;;;4.53;2.90;;;;;;;20.49;61.00;100206.59;4982155;28;20081;-67
2021/04/11 08:01:36;;;;;;;5.68;3.28;;;;;;;20.53;60.23;100210.41;4989055;28;20046;-66
2021/04/11 08:04:22;;;;;;;3.97;2.65;;;;;;;20.64;60.05;100192.88;4981453;28;20403;-66
2021/04/11 08:07:25;;;;;;;5.20;2.72;;;;;;;20.91;59.25;100206.31;4984628;28;20054;-67
2021/04/11 08:10:33;;;;;;;4.15;2.30;;;;;;;21.16;58.30;100209.06;4986919;28;20062;-68
2021/04/11 08:13:16;;;;;;;4.85;1.90;;;;;;;21.40;56.99;100200.50;4965954;28;20057;-66
2021/04/11 08:15:52;;;;;;;4.10;2.45;;;;;;;21.55;56.43;100193.19;4983564;28;20046;-68
2021/04/11 08:18:57;;;;;;;4.82;2.22;;;;;;;21.79;56.47;100203.59;4988914;28;20268;-68
2021/04/11 08:21:43;;;;;;;3.10;1.90;;;;;;;22.15;54.97;100213.06;4989165;28;20055;-69
2021/04/11 08:24:24;;;;;;;5.10;2.05;;;;;;;22.30;54.19;100212.25;4983086;28;20046;-68
2021/04/11 08:26:59;;;;;;;6.20;3.00;;;;;;;22.53;53.26;100215.25;4984820;28;20050;-68
2021/04/11 08:29:39;;;;;;;7.13;3.70;;;;;;;22.76;53.19;100212.53;4984630;28;20054;-68
2021/04/11 08:32:24;;;;;;;6.60;2.70;;;;;;;22.97;52.09;100214.22;4981425;28;20136;-67
2021/04/11 08:35:14;;;;;;;4.90;2.30;;;;;;;23.16;51.63;100209.38;4986551;28;20192;-68
2021/04/11 08:38:07;;;;;;;;;;;;;;;23.12;54.51;100219.88;4988344;28;20042;-68
2021/04/11 08:41:03;;;;;;;3.35;2.13;;;;;;;23.48;52.26;100214.09;4976174;28;19926;-68
2021/04/11 08:44:04;;;;;;;3.17;2.08;;;;;;;23.84;50.84;100216.47;4990846;28;20395;-69
2021/04/11 08:46:39;;;;;;;4.05;2.03;;;;;;;24.21;49.48;100235.06;4987742;28;20038;-63
2021/04/11 08:49:16;;;;;;;3.50;2.15;;;;;;;24.45;49.32;100199.63;4985459;28;20136;-64
2021/04/11 08:51:58;;;;;;;3.30;2.10;;;;;;;24.87;48.00;100219.44;4990816;28;20043;-64
2021/04/11 08:54:31;;;;;;;2.72;1.95;;;;;;;25.12;47.40;100234.06;4987520;28;20046;-65
2021/04/11 08:57:15;;;;;;;4.15;2.00;;;;;;;25.32;47.32;100231.91;4986169;28;20054;-66
2021/04/11 08:59:45;;;;;;;4.15;2.40;;;;;;;25.62;45.57;100246.16;4989980;28;20046;-64
2021/04/11 09:02:28;;;;;;;3.42;1.98;;;;;;;25.79;45.86;100235.31;4983166;28;20046;-66
2021/04/11 09:05:10;;;;;;;2.92;2.30;;;;;;;26.21;45.10;100241.50;4986256;28;20046;-64
2021/04/11 09:07:43;;;;;;;3.58;1.92;;;;;;;26.43;43.77;100239.66;4983540;28;20043;-69
2021/04/11 09:10:19;;;;;;;3.58;1.75;;;;;;;26.48;43.38;100241.34;4986331;28;20760;-67
2021/04/11 09:13:06;;;;;;;3.72;2.03;;;;;;;26.63;43.32;100231.66;4987722;28;20046;-67
2021/04/11 09:16:02;;;;;;;3.30;1.58;;;;;;;26.81;43.08;100243.25;4989658;28;20173;-66
2021/04/11 09:18:57;;;;;;;4.47;1.90;;;;;;;27.11;42.34;100239.31;4984622;28;20050;-66
2021/04/11 09:21:51;;;;;;;4.13;1.75;;;;;;;27.29;41.76;100245.19;4983923;28;20054;-66
2021/04/11 09:24:47;;;;;;;2.03;1.17;;;;;;;27.39;41.59;100244.44;4984514;28;20046;-65
2021/04/11 09:27:25;;;;;;;2.35;1.48;;;;;;;27.50;40.78;100235.88;4991588;28;20415;-67
2021/04/11 09:29:57;;;;;;;5.60;1.98;;;;;;;27.66;40.22;100236.34;4982663;28;20049;-67
2021/04/11 09:32:33;;;;;;;2.78;1.67;;;;;;;27.81;39.69;100237.22;4985103;28;20054;-67
2021/04/11 09:35:02;;;;;;;3.35;1.77;;;;;;;28.09;39.00;100248.75;4984634;28;20459;-66
2021/04/11 09:38:06;;;;;;;2.80;2.00;;;;;;;28.23;39.14;100265.19;4983244;28;20073;-66
2021/04/11 09:40:38;;;;;;;4.60;1.98;;;;;;;28.52;38.07;100265.25;4986983;28;20495;-68
2021/04/11 09:43:23;;;;;;;3.60;1.90;;;;;;;28.80;37.42;100273.84;4991943;28;20073;-66
2021/04/11 09:46:33;;;;;;;2.25;1.70;;;;;;;28.74;37.69;100248.81;4991752;28;20412;-66
2021/04/11 09:49:51;;;;;;;3.15;1.92;;;;;;;28.68;37.86;100262.75;4979366;28;20057;-66
2021/04/11 09:52:41;;;;;;;4.28;2.03;;;;;;;28.16;38.19;100270.09;4949814;28;20058;-65
2021/04/11 09:55:33;;;;;;;4.03;1.85;;;;;;;28.44;37.76;100275.88;4947817;28;20047;-66
2021/04/11 09:58:23;;;;;;;3.03;2.03;;;;;;;28.79;37.22;100275.09;4987182;28;20080;-67
2021/04/11 10:01:07;;;;;;;4.32;2.08;;;;;;;29.08;36.42;100277.13;4986737;28;20050;-66
2021/04/11 10:03:53;;;;;;;2.20;1.70;;;;;;;28.88;36.47;100286.13;4985547;28;20194;-66
2021/04/11 10:06:46;;;;;;;2.58;1.88;;;;;;;28.18;37.47;100274.22;4984359;28;20053;-66
2021/04/11 10:09:26;;;;;;;3.70;2.08;;;;;;;28.32;37.07;100279.97;4986779;28;20057;-67
2021/04/11 10:12:05;;;;;;;3.30;2.08;;;;;;;27.83;37.43;100281.50;4990557;28;20049;-67
2021/04/11 10:14:47;;;;;;;1.88;1.38;;;;;;;27.45;38.00;100285.00;4987103;28;20054;-67
2021/04/11 10:17:49;;;;;;;2.70;1.52;;;;;;;26.78;38.41;100283.31;4991216;28;20046;-67
2021/04/11 10:20:25;;;;;;;3.00;1.60;;;;;;;26.94;38.02;100281.81;4974698;28;20057;-67
2021/04/11 10:22:58;;;;;;;3.00;2.10;;;;;;;27.44;37.50;100301.38;4981446;28;20133;-66
2021/04/11 10:25:49;;;;;;;3.00;1.95;;;;;;;28.20;36.99;100288.13;4990689;28;20046;-66
2021/04/11 10:28:40;;;;;;;2.67;1.75;;;;;;;28.81;36.12;100286.97;4990343;28;20499;-66
2021/04/11 10:31:28;;;;;;;2.20;1.58;;;;;;;29.27;35.75;100283.22;4991011;28;20514;-66
2021/04/11 10:34:24;;;;;;;3.03;1.80;;;;;;;29.65;34.88;100286.41;4986887;28;20050;-67
2021/04/11 10:36:55;;;;;;;4.47;2.08;;;;;;;30.15;34.14;100263.09;4975661;28;20047;-66
2021/04/11 10:40:04;;;;;;;2.83;1.80;;;;;;;30.60;34.66;100288.31;4980169;28;20061;-65
2021/04/11 10:43:13;;;;;;;2.83;1.77;;;;;;;30.93;33.32;100283.94;4979259;28;20049;-67
2021/04/11 10:45:46;;;;;;;2.58;1.48;;;;;;;31.14;32.93;100280.00;4979633;28;20133;-66
2021/04/11 10:48:57;;;;;;;2.72;1.60;;;;;;;31.30;32.83;100277.38;4990117;28;20047;-67
2021/04/11 10:51:23;;;;;;;2.67;1.50;;;;;;;31.50;32.03;100294.88;4990223;28;20137;-66
2021/04/11 10:54:16;;;;;;;4.32;1.98;;;;;;;31.75;32.11;100271.47;4985051;28;20046;-66
2021/04/11 10:56:45;;;;;;;4.60;1.90;;;;;;;32.12;30.62;100284.19;4967466;28;20129;-66
2021/04/11 10:59:14;;;;;;;;;;;;;;;32.11;33.16;100275.97;4984852;28;20058;-67
2021/04/11 11:01:40;;;;;;;;;;;;;;;32.72;33.45;100273.78;4980789;28;20430;-66
2021/04/11 11:04:31;;;;;;;2.90;1.80;;;;;;;33.33;30.76;100274.72;4985071;28;19928;-66
2021/04/11 11:07:19;;;;;;;2.60;1.50;;;;;;;33.40;29.50;100280.38;4986286;28;20049;-67
2021/04/11 11:10:13;;;;;;;1.65;1.30;;;;;;;33.91;28.92;100276.00;4990021;28;20046;-67
2021/04/11 11:12:51;;;;;;;3.10;1.58;;;;;;;33.79;28.56;100268.00;4986721;28;20047;-67
2021/04/11 11:15:42;;;;;;;1.67;1.20;;;;;;;33.56;29.12;100274.72;4984872;28;20131;-66
2021/04/11 11:18:59;;;;;;;1.65;1.40;;;;;;;33.61;29.41;100268.41;4983013;28;20306;-65
2021/04/11 11:21:53;;;;;;;2.08;1.30;;;;;;;32.98;28.79;100279.94;4909673;29;20461;-65
2021/04/11 11:24:39;;;;;;;2.20;1.40;;;;;;;32.91;28.33;100282.94;4911042;29;20052;-66
2021/04/11 11:27:19;;;;;;;3.78;1.67;;;;;;;32.96;28.21;100289.09;4978129;28;20064;-67
2021/04/11 11:30:06;;;;;;;2.75;1.25;;;;;;;32.65;28.32;100276.78;4990922;28;20133;-67
2021/04/11 11:33:09;;;;;;;1.58;1.20;;;;;;;31.78;28.23;100287.13;4987478;28;20068;-68
2021/04/11 11:36:08;;;;;;;1.85;1.48;;;;;;;31.94;29.08;100283.66;4985667;28;20039;-67
2021/04/11 11:38:40;;;;;;;1.58;1.08;;;;;;;31.97;27.81;100277.00;4989142;28;20050;-67
2021/04/11 11:41:14;;;;;;;1.63;1.10;;;;;;;31.67;28.06;100277.78;4988527;28;20058;-66
2021/04/11 11:44:01;;;;;;;2.28;1.35;;;;;;;31.49;28.39;100293.25;4987608;28;20052;-66
2021/04/11 11:46:46;;;;;;;1.50;1.13;;;;;;;30.62;28.50;100291.59;4982799;28;20162;-67
2021/04/11 11:49:23;;;;;;;2.28;1.10;;;;;;;29.94;29.27;100287.09;4988017;28;20089;-67
2021/04/11 11:51:56;;;;;;;2.60;1.13;;;;;;;30.01;29.14;100291.16;4986977;28;20144;-67
2021/04/11 11:54:38;;;;;;;2.75;1.13;;;;;;;29.45;29.45;100285.22;4989885;28;20129;-66
2021/04/11 11:57:14;;;;;;;1.58;0.90;;;;;;;28.62;30.02;100270.16;4983293;28;21137;-68
2021/04/11 11:59:46;;;;;;;1.85;1.50;;;;;;;29.24;28.56;100286.13;4990922;28;20046;-67
2021/04/11 12:02:45;;;;;;;1.35;1.00;;;;;;;30.47;27.36;100288.03;4983625;28;20476;-67
2021/04/11 12:05:30;;;;;;;;;;;;;;;31.03;28.58;100288.78;4987797;28;20132;-66
2021/04/11 12:08:21;;;;;;;1.63;1.00;;;;;;;29.83;28.35;100277.69;4989378;28;19928;-67
2021/04/11 12:10:59;;;;;;;2.30;1.15;;;;;;;28.53;29.18;100290.69;4988475;28;20414;-66
2021/04/11 12:13:39;;;;;;;2.78;1.00;;;;;;;27.74;29.94;100288.81;4986137;28;20070;-67
2021/04/11 12:16:24;;;;;;;1.73;0.98;;;;;;;27.09;30.67;100285.59;4983554;28;20050;-66
2021/04/11 12:19:06;;;;;;;1.42;1.05;;;;;;;26.56;31.19;100282.31;4985542;28;20049;-66
2021/04/11 12:22:02;;;;;;;5.28;1.50;;;;;;;28.48;28.96;100288.22;4986286;28;20050;-66